sensor_id;sensor_type;location;lat;lon;timestamp;temperature;humidity
40454;DHT22;26160;51.858;4.398;2022-12-07T00:01:39;4.30;99.90
40454;DHT22;26160;51.858;4.398;2022-12-07T00:04:09;4.30;99.90
40454;DHT22;26160;51.858;4.398;2022-12-07T00:06:41;4.30;99.90
40454;DHT22;26160;51.858;4.398;2022-12-07T00:09:12;4.10;99.90
40454;DHT22;26160;51.858;4.398;2022-12-07T00:11:38;4.00;99.90
40454;DHT22;26160;51.858;4.398;2022-12-07T00:14:07;4.00;99.90
40454;DHT22;26160;51.858;4.398;2022-12-07T00:16:34;3.90;99.90
40454;DHT22;26160;51.858;4.398;2022-12-07T00:19:01;3.80;99.90
40454;DHT22;26160;51.858;4.398;2022-12-07T00:21:30;3.70;99.90
40454;DHT22;26160;51.858;4.398;2022-12-07T00:23:57;3.70;99.90
40454;DHT22;26160;51.858;4.398;2022-12-07T00:26:29;3.70;99.90
40454;DHT22;26160;51.858;4.398;2022-12-07T00:29:01;3.70;99.90
40454;DHT22;26160;51.858;4.398;2022-12-07T00:31:30;3.60;99.90
40454;DHT22;26160;51.858;4.398;2022-12-07T00:33:57;3.50;99.90
40454;DHT22;26160;51.858;4.398;2022-12-07T00:36:25;3.40;99.90
40454;DHT22;26160;51.858;4.398;2022-12-07T00:38:51;3.30;99.90
40454;DHT22;26160;51.858;4.398;2022-12-07T00:41:22;3.20;99.90
40454;DHT22;26160;51.858;4.398;2022-12-07T00:43:50;3.20;99.90
40454;DHT22;26160;51.858;4.398;2022-12-07T00:46:17;3.10;99.90
40454;DHT22;26160;51.858;4.398;2022-12-07T00:48:44;3.10;99.90
40454;DHT22;26160;51.858;4.398;2022-12-07T00:51:11;3.00;99.90
40454;DHT22;26160;51.858;4.398;2022-12-07T00:53:38;2.90;99.90
40454;DHT22;26160;51.858;4.398;2022-12-07T00:56:13;2.80;99.90
40454;DHT22;26160;51.858;4.398;2022-12-07T00:58:39;2.90;99.90
40454;DHT22;26160;51.858;4.398;2022-12-07T01:01:07;2.90;99.90
40454;DHT22;26160;51.858;4.398;2022-12-07T01:03:34;2.90;99.90
40454;DHT22;26160;51.858;4.398;2022-12-07T01:06:01;2.90;99.90
40454;DHT22;26160;51.858;4.398;2022-12-07T01:08:28;2.80;99.90
40454;DHT22;26160;51.858;4.398;2022-12-07T01:10:59;3.10;99.90
40454;DHT22;26160;51.858;4.398;2022-12-07T01:13:26;3.00;99.90
40454;DHT22;26160;51.858;4.398;2022-12-07T01:15:57;3.00;99.90
40454;DHT22;26160;51.858;4.398;2022-12-07T01:18:27;2.90;99.90
40454;DHT22;26160;51.858;4.398;2022-12-07T01:21:01;2.80;99.90
40454;DHT22;26160;51.858;4.398;2022-12-07T01:23:29;2.80;99.90
40454;DHT22;26160;51.858;4.398;2022-12-07T01:26:00;2.80;99.90
40454;DHT22;26160;51.858;4.398;2022-12-07T01:28:27;2.70;99.90
40454;DHT22;26160;51.858;4.398;2022-12-07T01:30:58;2.60;99.90
40454;DHT22;26160;51.858;4.398;2022-12-07T01:33:27;2.60;99.90
40454;DHT22;26160;51.858;4.398;2022-12-07T01:35:53;2.60;99.90
40454;DHT22;26160;51.858;4.398;2022-12-07T01:38:19;2.50;99.90
40454;DHT22;26160;51.858;4.398;2022-12-07T01:40:45;2.50;99.90
40454;DHT22;26160;51.858;4.398;2022-12-07T01:43:19;2.50;99.90
40454;DHT22;26160;51.858;4.398;2022-12-07T01:45:45;2.50;99.90
40454;DHT22;26160;51.858;4.398;2022-12-07T01:48:15;2.50;99.90
40454;DHT22;26160;51.858;4.398;2022-12-07T01:50:44;2.40;99.90
40454;DHT22;26160;51.858;4.398;2022-12-07T01:53:11;2.30;99.90
40454;DHT22;26160;51.858;4.398;2022-12-07T01:55:41;2.30;99.90
40454;DHT22;26160;51.858;4.398;2022-12-07T01:58:08;2.30;99.90
40454;DHT22;26160;51.858;4.398;2022-12-07T02:03:27;2.50;99.90
40454;DHT22;26160;51.858;4.398;2022-12-07T02:05:55;2.70;99.90
40454;DHT22;26160;51.858;4.398;2022-12-07T02:08:21;2.90;99.90
40454;DHT22;26160;51.858;4.398;2022-12-07T02:10:48;3.00;99.90
40454;DHT22;26160;51.858;4.398;2022-12-07T02:13:23;3.20;99.90
40454;DHT22;26160;51.858;4.398;2022-12-07T02:19:04;4.00;99.90
40454;DHT22;26160;51.858;4.398;2022-12-07T02:24:48;4.10;99.90
40454;DHT22;26160;51.858;4.398;2022-12-07T02:27:38;4.10;99.90
40454;DHT22;26160;51.858;4.398;2022-12-07T02:30:14;4.10;99.90
40454;DHT22;26160;51.858;4.398;2022-12-07T02:32:59;4.00;99.90
40454;DHT22;26160;51.858;4.398;2022-12-07T02:35:35;3.80;99.90
40454;DHT22;26160;51.858;4.398;2022-12-07T02:38:16;3.60;99.90
40454;DHT22;26160;51.858;4.398;2022-12-07T02:41:05;3.30;99.90
40454;DHT22;26160;51.858;4.398;2022-12-07T02:43:39;3.20;99.90
40454;DHT22;26160;51.858;4.398;2022-12-07T02:46:14;3.00;99.90
40454;DHT22;26160;51.858;4.398;2022-12-07T02:48:43;2.90;99.90
40454;DHT22;26160;51.858;4.398;2022-12-07T02:51:31;2.80;99.90
40454;DHT22;26160;51.858;4.398;2022-12-07T02:53:59;2.60;99.90
40454;DHT22;26160;51.858;4.398;2022-12-07T03:08:00;2.40;99.90
40454;DHT22;26160;51.858;4.398;2022-12-07T03:10:40;2.30;99.90
40454;DHT22;26160;51.858;4.398;2022-12-07T03:13:19;2.30;99.90
40454;DHT22;26160;51.858;4.398;2022-12-07T03:18:30;2.50;99.90
40454;DHT22;26160;51.858;4.398;2022-12-07T03:21:02;2.60;99.90
40454;DHT22;26160;51.858;4.398;2022-12-07T03:23:34;2.60;99.90
40454;DHT22;26160;51.858;4.398;2022-12-07T03:26:02;2.70;99.90
40454;DHT22;26160;51.858;4.398;2022-12-07T03:28:36;2.60;99.90
40454;DHT22;26160;51.858;4.398;2022-12-07T03:33:40;2.60;99.90
40454;DHT22;26160;51.858;4.398;2022-12-07T03:36:26;2.60;99.90
40454;DHT22;26160;51.858;4.398;2022-12-07T03:41:50;2.70;99.90
40454;DHT22;26160;51.858;4.398;2022-12-07T03:44:20;2.60;99.90
40454;DHT22;26160;51.858;4.398;2022-12-07T03:47:12;2.60;99.90
40454;DHT22;26160;51.858;4.398;2022-12-07T03:49:53;2.60;99.90
40454;DHT22;26160;51.858;4.398;2022-12-07T03:55:16;2.40;99.90
40454;DHT22;26160;51.858;4.398;2022-12-07T03:57:45;2.50;99.90
40454;DHT22;26160;51.858;4.398;2022-12-07T04:00:13;2.50;99.90
40454;DHT22;26160;51.858;4.398;2022-12-07T04:02:41;2.60;99.90
40454;DHT22;26160;51.858;4.398;2022-12-07T04:05:07;2.80;99.90
40454;DHT22;26160;51.858;4.398;2022-12-07T04:07:34;3.10;99.90
40454;DHT22;26160;51.858;4.398;2022-12-07T04:10:00;3.40;99.90
40454;DHT22;26160;51.858;4.398;2022-12-07T04:12:26;3.50;99.90
40454;DHT22;26160;51.858;4.398;2022-12-07T04:14:52;3.40;99.90
40454;DHT22;26160;51.858;4.398;2022-12-07T04:17:18;3.20;99.90
40454;DHT22;26160;51.858;4.398;2022-12-07T04:19:44;3.00;99.90
40454;DHT22;26160;51.858;4.398;2022-12-07T04:22:10;2.90;99.90
40454;DHT22;26160;51.858;4.398;2022-12-07T04:24:36;2.80;99.90
40454;DHT22;26160;51.858;4.398;2022-12-07T04:27:02;2.70;99.90
40454;DHT22;26160;51.858;4.398;2022-12-07T04:29:28;2.60;99.90
40454;DHT22;26160;51.858;4.398;2022-12-07T04:31:55;2.50;99.90
40454;DHT22;26160;51.858;4.398;2022-12-07T04:34:21;2.40;99.90
40454;DHT22;26160;51.858;4.398;2022-12-07T04:36:48;2.30;99.90
40454;DHT22;26160;51.858;4.398;2022-12-07T04:39:26;2.20;99.90
40454;DHT22;26160;51.858;4.398;2022-12-07T04:41:53;2.30;99.90
40454;DHT22;26160;51.858;4.398;2022-12-07T04:44:20;2.30;99.90
40454;DHT22;26160;51.858;4.398;2022-12-07T04:46:47;2.30;99.90
40454;DHT22;26160;51.858;4.398;2022-12-07T04:49:14;2.40;99.90
40454;DHT22;26160;51.858;4.398;2022-12-07T04:51:41;2.40;99.90
40454;DHT22;26160;51.858;4.398;2022-12-07T04:54:08;2.50;99.90
40454;DHT22;26160;51.858;4.398;2022-12-07T04:56:34;2.60;99.90
40454;DHT22;26160;51.858;4.398;2022-12-07T04:59:01;2.60;99.90
40454;DHT22;26160;51.858;4.398;2022-12-07T05:01:28;2.60;99.90
40454;DHT22;26160;51.858;4.398;2022-12-07T05:03:54;2.80;99.90
40454;DHT22;26160;51.858;4.398;2022-12-07T05:06:20;3.00;99.90
40454;DHT22;26160;51.858;4.398;2022-12-07T05:08:46;3.20;99.90
40454;DHT22;26160;51.858;4.398;2022-12-07T05:11:12;3.30;99.90
40454;DHT22;26160;51.858;4.398;2022-12-07T05:13:59;3.40;99.90
40454;DHT22;26160;51.858;4.398;2022-12-07T05:16:25;3.40;99.90
40454;DHT22;26160;51.858;4.398;2022-12-07T05:18:51;3.40;99.90
40454;DHT22;26160;51.858;4.398;2022-12-07T05:21:17;3.50;99.90
40454;DHT22;26160;51.858;4.398;2022-12-07T05:23:44;3.60;99.90
40454;DHT22;26160;51.858;4.398;2022-12-07T05:26:10;3.70;99.90
40454;DHT22;26160;51.858;4.398;2022-12-07T05:28:36;3.80;99.90
40454;DHT22;26160;51.858;4.398;2022-12-07T05:31:05;3.80;99.90
40454;DHT22;26160;51.858;4.398;2022-12-07T05:33:32;3.80;99.90
40454;DHT22;26160;51.858;4.398;2022-12-07T05:35:58;3.70;99.90
40454;DHT22;26160;51.858;4.398;2022-12-07T05:38:24;3.70;99.90
40454;DHT22;26160;51.858;4.398;2022-12-07T05:40:53;3.90;99.90
40454;DHT22;26160;51.858;4.398;2022-12-07T05:43:19;4.00;99.90
40454;DHT22;26160;51.858;4.398;2022-12-07T05:45:45;4.00;99.90
40454;DHT22;26160;51.858;4.398;2022-12-07T05:48:11;3.90;99.90
40454;DHT22;26160;51.858;4.398;2022-12-07T05:50:37;3.80;99.90
40454;DHT22;26160;51.858;4.398;2022-12-07T05:53:04;3.70;99.90
40454;DHT22;26160;51.858;4.398;2022-12-07T05:55:30;3.70;99.90
40454;DHT22;26160;51.858;4.398;2022-12-07T05:57:56;3.90;99.90
40454;DHT22;26160;51.858;4.398;2022-12-07T06:00:40;3.90;99.90
40454;DHT22;26160;51.858;4.398;2022-12-07T06:03:06;4.10;99.90
40454;DHT22;26160;51.858;4.398;2022-12-07T06:05:36;4.20;99.90
40454;DHT22;26160;51.858;4.398;2022-12-07T06:08:02;4.20;99.90
40454;DHT22;26160;51.858;4.398;2022-12-07T06:10:28;4.20;99.90
40454;DHT22;26160;51.858;4.398;2022-12-07T06:12:54;4.30;99.90
40454;DHT22;26160;51.858;4.398;2022-12-07T06:15:20;4.20;99.90
40454;DHT22;26160;51.858;4.398;2022-12-07T06:17:47;4.10;99.90
40454;DHT22;26160;51.858;4.398;2022-12-07T06:20:13;3.90;99.90
40454;DHT22;26160;51.858;4.398;2022-12-07T06:22:39;3.80;99.90
40454;DHT22;26160;51.858;4.398;2022-12-07T06:25:05;4.10;99.90
40454;DHT22;26160;51.858;4.398;2022-12-07T06:27:33;4.60;99.90
40454;DHT22;26160;51.858;4.398;2022-12-07T06:29:59;4.90;99.90
40454;DHT22;26160;51.858;4.398;2022-12-07T06:32:25;4.90;99.90
40454;DHT22;26160;51.858;4.398;2022-12-07T06:34:52;5.00;99.90
40454;DHT22;26160;51.858;4.398;2022-12-07T06:37:18;4.90;99.90
40454;DHT22;26160;51.858;4.398;2022-12-07T06:39:44;4.90;99.90
40454;DHT22;26160;51.858;4.398;2022-12-07T06:42:11;4.80;99.90
40454;DHT22;26160;51.858;4.398;2022-12-07T06:44:37;4.70;99.90
40454;DHT22;26160;51.858;4.398;2022-12-07T06:47:03;4.70;99.90
40454;DHT22;26160;51.858;4.398;2022-12-07T06:49:31;4.70;99.90
40454;DHT22;26160;51.858;4.398;2022-12-07T06:51:57;4.70;99.90
40454;DHT22;26160;51.858;4.398;2022-12-07T06:54:23;4.70;99.90
40454;DHT22;26160;51.858;4.398;2022-12-07T06:56:49;4.80;99.90
40454;DHT22;26160;51.858;4.398;2022-12-07T06:59:15;4.90;99.90
40454;DHT22;26160;51.858;4.398;2022-12-07T07:01:41;4.80;99.90
40454;DHT22;26160;51.858;4.398;2022-12-07T07:04:08;4.90;99.90
40454;DHT22;26160;51.858;4.398;2022-12-07T07:06:34;4.70;99.90
40454;DHT22;26160;51.858;4.398;2022-12-07T07:09:01;4.70;99.90
40454;DHT22;26160;51.858;4.398;2022-12-07T07:11:30;4.60;99.90
40454;DHT22;26160;51.858;4.398;2022-12-07T07:13:56;4.50;99.90
40454;DHT22;26160;51.858;4.398;2022-12-07T07:16:24;4.40;99.90
40454;DHT22;26160;51.858;4.398;2022-12-07T07:18:50;4.30;99.90
40454;DHT22;26160;51.858;4.398;2022-12-07T07:21:17;4.30;99.90
40454;DHT22;26160;51.858;4.398;2022-12-07T07:23:43;4.30;99.90
40454;DHT22;26160;51.858;4.398;2022-12-07T07:26:09;4.20;99.90
40454;DHT22;26160;51.858;4.398;2022-12-07T07:28:35;4.20;99.90
40454;DHT22;26160;51.858;4.398;2022-12-07T07:31:01;4.10;99.90
40454;DHT22;26160;51.858;4.398;2022-12-07T07:33:27;4.10;99.90
40454;DHT22;26160;51.858;4.398;2022-12-07T07:35:53;4.20;99.90
40454;DHT22;26160;51.858;4.398;2022-12-07T07:38:19;4.70;99.90
40454;DHT22;26160;51.858;4.398;2022-12-07T07:40:46;4.90;99.90
40454;DHT22;26160;51.858;4.398;2022-12-07T07:43:12;4.90;99.90
40454;DHT22;26160;51.858;4.398;2022-12-07T07:45:38;4.90;99.90
40454;DHT22;26160;51.858;4.398;2022-12-07T07:48:04;4.80;99.90
40454;DHT22;26160;51.858;4.398;2022-12-07T07:50:30;4.80;99.90
40454;DHT22;26160;51.858;4.398;2022-12-07T07:52:57;4.70;99.90
40454;DHT22;26160;51.858;4.398;2022-12-07T07:55:23;4.60;99.90
40454;DHT22;26160;51.858;4.398;2022-12-07T07:57:49;4.60;99.90
40454;DHT22;26160;51.858;4.398;2022-12-07T08:00:16;4.60;99.90
40454;DHT22;26160;51.858;4.398;2022-12-07T08:02:43;4.70;99.90
40454;DHT22;26160;51.858;4.398;2022-12-07T08:05:11;4.80;99.90
40454;DHT22;26160;51.858;4.398;2022-12-07T08:07:37;5.00;99.90
40454;DHT22;26160;51.858;4.398;2022-12-07T08:10:04;5.10;99.90
40454;DHT22;26160;51.858;4.398;2022-12-07T08:12:30;5.20;99.90
40454;DHT22;26160;51.858;4.398;2022-12-07T08:14:56;5.30;99.90
40454;DHT22;26160;51.858;4.398;2022-12-07T08:17:23;5.30;99.90
40454;DHT22;26160;51.858;4.398;2022-12-07T08:19:51;5.20;99.90
40454;DHT22;26160;51.858;4.398;2022-12-07T08:22:18;5.10;99.90
40454;DHT22;26160;51.858;4.398;2022-12-07T08:24:44;5.00;99.90
40454;DHT22;26160;51.858;4.398;2022-12-07T08:27:12;4.90;99.90
40454;DHT22;26160;51.858;4.398;2022-12-07T08:29:38;4.80;99.90
40454;DHT22;26160;51.858;4.398;2022-12-07T08:32:04;4.80;99.90
40454;DHT22;26160;51.858;4.398;2022-12-07T08:34:30;4.70;99.90
40454;DHT22;26160;51.858;4.398;2022-12-07T08:36:56;4.60;99.90
40454;DHT22;26160;51.858;4.398;2022-12-07T08:39:22;4.50;99.90
40454;DHT22;26160;51.858;4.398;2022-12-07T08:41:48;4.50;99.90
40454;DHT22;26160;51.858;4.398;2022-12-07T08:44:15;4.50;99.90
40454;DHT22;26160;51.858;4.398;2022-12-07T08:46:46;4.70;99.90
40454;DHT22;26160;51.858;4.398;2022-12-07T08:49:20;4.80;99.90
40454;DHT22;26160;51.858;4.398;2022-12-07T08:51:48;5.00;99.90
40454;DHT22;26160;51.858;4.398;2022-12-07T08:54:17;5.20;99.90
40454;DHT22;26160;51.858;4.398;2022-12-07T08:56:45;5.30;99.90
40454;DHT22;26160;51.858;4.398;2022-12-07T08:59:16;5.40;99.90
40454;DHT22;26160;51.858;4.398;2022-12-07T09:01:43;5.60;99.90
40454;DHT22;26160;51.858;4.398;2022-12-07T09:04:09;5.60;99.90
40454;DHT22;26160;51.858;4.398;2022-12-07T09:06:36;5.70;99.90
40454;DHT22;26160;51.858;4.398;2022-12-07T09:09:03;5.80;99.90
40454;DHT22;26160;51.858;4.398;2022-12-07T09:11:30;6.00;99.90
40454;DHT22;26160;51.858;4.398;2022-12-07T09:13:56;6.20;99.90
40454;DHT22;26160;51.858;4.398;2022-12-07T09:16:22;6.30;99.90
40454;DHT22;26160;51.858;4.398;2022-12-07T09:18:48;6.40;99.90
40454;DHT22;26160;51.858;4.398;2022-12-07T09:21:14;6.30;99.90
40454;DHT22;26160;51.858;4.398;2022-12-07T09:23:44;6.30;99.90
40454;DHT22;26160;51.858;4.398;2022-12-07T09:26:10;6.30;99.90
40454;DHT22;26160;51.858;4.398;2022-12-07T09:28:37;6.20;99.90
40454;DHT22;26160;51.858;4.398;2022-12-07T09:31:04;6.20;99.90
40454;DHT22;26160;51.858;4.398;2022-12-07T09:33:30;6.20;99.90
40454;DHT22;26160;51.858;4.398;2022-12-07T09:35:56;6.10;99.90
40454;DHT22;26160;51.858;4.398;2022-12-07T09:38:22;6.20;99.90
40454;DHT22;26160;51.858;4.398;2022-12-07T09:40:49;6.10;99.90
40454;DHT22;26160;51.858;4.398;2022-12-07T09:43:18;6.00;99.90
40454;DHT22;26160;51.858;4.398;2022-12-07T09:45:46;5.90;99.90
40454;DHT22;26160;51.858;4.398;2022-12-07T09:48:43;5.90;99.90
40454;DHT22;26160;51.858;4.398;2022-12-07T09:51:30;5.70;99.90
40454;DHT22;26160;51.858;4.398;2022-12-07T09:53:57;5.70;99.90
40454;DHT22;26160;51.858;4.398;2022-12-07T09:56:24;5.60;99.90
40454;DHT22;26160;51.858;4.398;2022-12-07T09:58:56;5.60;99.90
40454;DHT22;26160;51.858;4.398;2022-12-07T10:01:23;5.60;99.90
40454;DHT22;26160;51.858;4.398;2022-12-07T10:06:26;5.60;99.90
40454;DHT22;26160;51.858;4.398;2022-12-07T10:08:53;5.50;99.90
40454;DHT22;26160;51.858;4.398;2022-12-07T10:11:19;5.50;99.90
40454;DHT22;26160;51.858;4.398;2022-12-07T10:13:47;5.50;99.90
40454;DHT22;26160;51.858;4.398;2022-12-07T10:18:50;5.50;99.90
40454;DHT22;26160;51.858;4.398;2022-12-07T10:21:22;5.50;99.90
40454;DHT22;26160;51.858;4.398;2022-12-07T10:24:13;5.50;99.90
40454;DHT22;26160;51.858;4.398;2022-12-07T10:26:51;5.60;99.90
40454;DHT22;26160;51.858;4.398;2022-12-07T10:29:53;5.70;99.90
40454;DHT22;26160;51.858;4.398;2022-12-07T10:34:41;6.30;99.90
40454;DHT22;26160;51.858;4.398;2022-12-07T10:39:54;6.80;99.90
40454;DHT22;26160;51.858;4.398;2022-12-07T10:45:17;7.10;99.90
40454;DHT22;26160;51.858;4.398;2022-12-07T10:48:10;7.20;99.90
40454;DHT22;26160;51.858;4.398;2022-12-07T11:02:10;7.30;99.90
40454;DHT22;26160;51.858;4.398;2022-12-07T11:04:59;7.40;99.90
40454;DHT22;26160;51.858;4.398;2022-12-07T11:20:34;7.50;99.90
40454;DHT22;26160;51.858;4.398;2022-12-07T11:36:51;7.60;99.90
40454;DHT22;26160;51.858;4.398;2022-12-07T11:41:55;8.00;99.90
40454;DHT22;26160;51.858;4.398;2022-12-07T11:44:33;8.10;99.90
40454;DHT22;26160;51.858;4.398;2022-12-07T11:47:07;8.40;99.90
40454;DHT22;26160;51.858;4.398;2022-12-07T11:49:45;8.40;99.90
40454;DHT22;26160;51.858;4.398;2022-12-07T11:52:23;8.50;99.90
40454;DHT22;26160;51.858;4.398;2022-12-07T11:54:52;8.50;99.90
40454;DHT22;26160;51.858;4.398;2022-12-07T11:57:35;8.40;99.90
40454;DHT22;26160;51.858;4.398;2022-12-07T12:00:14;8.30;99.90
40454;DHT22;26160;51.858;4.398;2022-12-07T12:05:26;8.10;99.90
40454;DHT22;26160;51.858;4.398;2022-12-07T12:08:03;7.90;99.90
40454;DHT22;26160;51.858;4.398;2022-12-07T12:16:44;6.90;99.90
40454;DHT22;26160;51.858;4.398;2022-12-07T12:19:44;6.70;99.90
40454;DHT22;26160;51.858;4.398;2022-12-07T12:22:18;6.60;99.90
40454;DHT22;26160;51.858;4.398;2022-12-07T12:24:48;6.50;99.90
40454;DHT22;26160;51.858;4.398;2022-12-07T12:27:29;6.70;99.90
40454;DHT22;26160;51.858;4.398;2022-12-07T12:29:59;6.70;99.90
40454;DHT22;26160;51.858;4.398;2022-12-07T12:32:42;6.70;99.90
40454;DHT22;26160;51.858;4.398;2022-12-07T12:35:36;6.60;99.90
40454;DHT22;26160;51.858;4.398;2022-12-07T12:38:25;6.60;99.90
40454;DHT22;26160;51.858;4.398;2022-12-07T12:40:56;6.60;99.90
40454;DHT22;26160;51.858;4.398;2022-12-07T12:51:48;6.60;99.90
40454;DHT22;26160;51.858;4.398;2022-12-07T12:54:26;6.60;99.90
40454;DHT22;26160;51.858;4.398;2022-12-07T12:57:20;6.90;99.90
40454;DHT22;26160;51.858;4.398;2022-12-07T13:34:42;6.90;99.90
40454;DHT22;26160;51.858;4.398;2022-12-07T13:37:12;6.60;99.90
40454;DHT22;26160;51.858;4.398;2022-12-07T13:39:53;6.50;99.90
40454;DHT22;26160;51.858;4.398;2022-12-07T13:44:58;6.40;99.90
40454;DHT22;26160;51.858;4.398;2022-12-07T13:47:41;6.30;99.90
40454;DHT22;26160;51.858;4.398;2022-12-07T13:50:41;6.20;99.90
40454;DHT22;26160;51.858;4.398;2022-12-07T13:53:12;6.20;99.90
40454;DHT22;26160;51.858;4.398;2022-12-07T13:55:44;6.10;99.90
40454;DHT22;26160;51.858;4.398;2022-12-07T13:58:11;6.10;99.90
40454;DHT22;26160;51.858;4.398;2022-12-07T14:00:37;6.20;99.90
40454;DHT22;26160;51.858;4.398;2022-12-07T14:03:25;6.30;99.90
40454;DHT22;26160;51.858;4.398;2022-12-07T14:08:42;6.50;99.90
40454;DHT22;26160;51.858;4.398;2022-12-07T14:11:14;6.60;99.90
40454;DHT22;26160;51.858;4.398;2022-12-07T14:13:58;6.70;99.90
40454;DHT22;26160;51.858;4.398;2022-12-07T14:18:51;6.80;99.90
40454;DHT22;26160;51.858;4.398;2022-12-07T14:21:21;6.90;99.90
40454;DHT22;26160;51.858;4.398;2022-12-07T14:24:16;7.00;99.90
40454;DHT22;26160;51.858;4.398;2022-12-07T14:26:46;6.90;99.90
40454;DHT22;26160;51.858;4.398;2022-12-07T14:31:49;6.90;99.90
40454;DHT22;26160;51.858;4.398;2022-12-07T14:34:15;6.90;99.90
40454;DHT22;26160;51.858;4.398;2022-12-07T14:36:41;6.80;99.90
40454;DHT22;26160;51.858;4.398;2022-12-07T14:39:07;6.60;99.90
40454;DHT22;26160;51.858;4.398;2022-12-07T14:41:33;6.40;99.90
40454;DHT22;26160;51.858;4.398;2022-12-07T14:44:22;6.30;99.90
40454;DHT22;26160;51.858;4.398;2022-12-07T14:46:51;6.10;99.90
40454;DHT22;26160;51.858;4.398;2022-12-07T14:49:19;6.10;99.90
40454;DHT22;26160;51.858;4.398;2022-12-07T14:51:46;6.10;99.90
40454;DHT22;26160;51.858;4.398;2022-12-07T14:54:19;6.10;99.90
40454;DHT22;26160;51.858;4.398;2022-12-07T14:56:46;6.00;99.90
40454;DHT22;26160;51.858;4.398;2022-12-07T14:59:16;6.00;99.90
40454;DHT22;26160;51.858;4.398;2022-12-07T15:01:43;6.00;99.90
40454;DHT22;26160;51.858;4.398;2022-12-07T15:04:09;6.00;99.90
40454;DHT22;26160;51.858;4.398;2022-12-07T15:06:35;5.90;99.90
40454;DHT22;26160;51.858;4.398;2022-12-07T15:09:01;5.90;99.90
40454;DHT22;26160;51.858;4.398;2022-12-07T15:11:28;5.90;99.90
40454;DHT22;26160;51.858;4.398;2022-12-07T15:13:54;5.80;99.90
40454;DHT22;26160;51.858;4.398;2022-12-07T15:16:38;5.80;99.90
40454;DHT22;26160;51.858;4.398;2022-12-07T15:19:19;5.70;99.90
40454;DHT22;26160;51.858;4.398;2022-12-07T15:21:49;5.70;99.90
40454;DHT22;26160;51.858;4.398;2022-12-07T15:24:15;5.60;99.90
40454;DHT22;26160;51.858;4.398;2022-12-07T15:26:41;5.60;99.90
40454;DHT22;26160;51.858;4.398;2022-12-07T15:29:08;5.50;99.90
40454;DHT22;26160;51.858;4.398;2022-12-07T15:31:35;5.50;99.90
40454;DHT22;26160;51.858;4.398;2022-12-07T15:34:01;5.50;99.90
40454;DHT22;26160;51.858;4.398;2022-12-07T15:36:32;5.50;99.90
40454;DHT22;26160;51.858;4.398;2022-12-07T15:38:58;5.50;99.90
40454;DHT22;26160;51.858;4.398;2022-12-07T15:41:25;5.50;99.90
40454;DHT22;26160;51.858;4.398;2022-12-07T15:43:51;5.50;99.90
40454;DHT22;26160;51.858;4.398;2022-12-07T15:46:38;5.50;99.90
40454;DHT22;26160;51.858;4.398;2022-12-07T15:49:11;5.50;99.90
40454;DHT22;26160;51.858;4.398;2022-12-07T15:51:38;5.50;99.90
40454;DHT22;26160;51.858;4.398;2022-12-07T15:54:04;5.60;99.90
40454;DHT22;26160;51.858;4.398;2022-12-07T15:56:30;5.60;99.90
40454;DHT22;26160;51.858;4.398;2022-12-07T15:58:57;5.70;99.90
40454;DHT22;26160;51.858;4.398;2022-12-07T16:01:23;5.70;99.90
40454;DHT22;26160;51.858;4.398;2022-12-07T16:03:49;5.70;99.90
40454;DHT22;26160;51.858;4.398;2022-12-07T16:06:17;5.70;99.90
40454;DHT22;26160;51.858;4.398;2022-12-07T16:08:44;5.80;99.90
40454;DHT22;26160;51.858;4.398;2022-12-07T16:11:11;6.10;99.90
40454;DHT22;26160;51.858;4.398;2022-12-07T16:13:38;6.20;99.90
40454;DHT22;26160;51.858;4.398;2022-12-07T16:16:13;6.30;99.90
40454;DHT22;26160;51.858;4.398;2022-12-07T16:18:39;6.30;99.90
40454;DHT22;26160;51.858;4.398;2022-12-07T16:21:07;6.30;99.90
40454;DHT22;26160;51.858;4.398;2022-12-07T16:23:33;6.20;99.90
40454;DHT22;26160;51.858;4.398;2022-12-07T16:26:14;6.20;99.90
40454;DHT22;26160;51.858;4.398;2022-12-07T16:28:41;6.20;99.90
40454;DHT22;26160;51.858;4.398;2022-12-07T16:31:15;6.10;99.90
40454;DHT22;26160;51.858;4.398;2022-12-07T16:33:42;6.10;99.90
40454;DHT22;26160;51.858;4.398;2022-12-07T16:36:12;6.10;99.90
40454;DHT22;26160;51.858;4.398;2022-12-07T16:38:40;6.10;99.90
40454;DHT22;26160;51.858;4.398;2022-12-07T16:41:07;6.10;99.90
40454;DHT22;26160;51.858;4.398;2022-12-07T16:43:33;6.10;99.90
40454;DHT22;26160;51.858;4.398;2022-12-07T16:45:59;6.00;99.90
40454;DHT22;26160;51.858;4.398;2022-12-07T16:48:26;6.00;99.90
40454;DHT22;26160;51.858;4.398;2022-12-07T16:50:52;6.00;99.90
40454;DHT22;26160;51.858;4.398;2022-12-07T16:53:21;5.90;99.90
40454;DHT22;26160;51.858;4.398;2022-12-07T16:55:47;5.90;99.90
40454;DHT22;26160;51.858;4.398;2022-12-07T16:58:15;5.90;99.90
40454;DHT22;26160;51.858;4.398;2022-12-07T17:00:42;5.90;99.90
40454;DHT22;26160;51.858;4.398;2022-12-07T17:03:09;5.80;99.90
40454;DHT22;26160;51.858;4.398;2022-12-07T17:05:40;5.80;99.90
40454;DHT22;26160;51.858;4.398;2022-12-07T17:08:08;5.70;99.90
40454;DHT22;26160;51.858;4.398;2022-12-07T17:10:40;5.70;99.90
40454;DHT22;26160;51.858;4.398;2022-12-07T17:13:07;5.70;99.90
40454;DHT22;26160;51.858;4.398;2022-12-07T17:16:02;5.60;99.90
40454;DHT22;26160;51.858;4.398;2022-12-07T17:18:31;5.60;99.90
40454;DHT22;26160;51.858;4.398;2022-12-07T17:21:05;5.60;99.90
40454;DHT22;26160;51.858;4.398;2022-12-07T17:23:32;5.60;99.90
40454;DHT22;26160;51.858;4.398;2022-12-07T17:26:17;5.60;99.90
40454;DHT22;26160;51.858;4.398;2022-12-07T17:28:44;5.60;99.90
40454;DHT22;26160;51.858;4.398;2022-12-07T17:31:12;5.60;99.90
40454;DHT22;26160;51.858;4.398;2022-12-07T17:33:38;5.60;99.90
40454;DHT22;26160;51.858;4.398;2022-12-07T17:36:12;5.70;99.90
40454;DHT22;26160;51.858;4.398;2022-12-07T17:38:39;5.80;99.90
40454;DHT22;26160;51.858;4.398;2022-12-07T17:41:30;5.90;99.90
40454;DHT22;26160;51.858;4.398;2022-12-07T17:44:17;5.90;99.90
40454;DHT22;26160;51.858;4.398;2022-12-07T17:46:45;5.80;99.90
40454;DHT22;26160;51.858;4.398;2022-12-07T17:49:11;5.80;99.90
40454;DHT22;26160;51.858;4.398;2022-12-07T17:51:37;5.70;99.90
40454;DHT22;26160;51.858;4.398;2022-12-07T17:54:25;5.70;99.90
40454;DHT22;26160;51.858;4.398;2022-12-07T17:56:51;5.70;99.90
40454;DHT22;26160;51.858;4.398;2022-12-07T17:59:17;5.70;99.90
40454;DHT22;26160;51.858;4.398;2022-12-07T18:01:44;5.70;99.90
40454;DHT22;26160;51.858;4.398;2022-12-07T18:04:10;5.70;99.90
40454;DHT22;26160;51.858;4.398;2022-12-07T18:06:37;5.70;99.90
40454;DHT22;26160;51.858;4.398;2022-12-07T18:09:03;5.70;99.90
40454;DHT22;26160;51.858;4.398;2022-12-07T18:11:30;5.70;99.90
40454;DHT22;26160;51.858;4.398;2022-12-07T18:13:57;5.70;99.90
40454;DHT22;26160;51.858;4.398;2022-12-07T18:16:25;5.70;99.90
40454;DHT22;26160;51.858;4.398;2022-12-07T18:18:52;5.80;99.90
40454;DHT22;26160;51.858;4.398;2022-12-07T18:21:24;5.80;99.90
40454;DHT22;26160;51.858;4.398;2022-12-07T18:23:52;5.90;99.90
40454;DHT22;26160;51.858;4.398;2022-12-07T18:26:20;5.90;99.90
40454;DHT22;26160;51.858;4.398;2022-12-07T18:28:46;5.90;99.90
40454;DHT22;26160;51.858;4.398;2022-12-07T18:31:14;5.90;99.90